createdAt,value
2023-05-21T00:03:31.891Z,67.60
2023-05-21T00:08:35.843Z,67.50
2023-05-21T00:13:39.639Z,67.40
2023-05-21T00:18:45.016Z,67.40
2023-05-21T00:23:48.475Z,67.60
2023-05-21T00:28:52.033Z,67.50
2023-05-21T00:33:57.039Z,67.70
2023-05-21T00:39:00.418Z,67.60
2023-05-21T00:44:03.930Z,67.20
2023-05-21T00:49:09.032Z,67.10
2023-05-21T00:54:12.631Z,67.30
2023-05-21T00:59:17.619Z,67.30
2023-05-21T01:04:23.259Z,67.30
2023-05-21T01:09:27.031Z,67.30
2023-05-21T01:14:32.806Z,67.50
2023-05-21T01:19:38.299Z,67.30
2023-05-21T01:24:47.629Z,66.80
2023-05-21T01:29:51.154Z,67.00
2023-05-21T01:35:03.588Z,66.90
2023-05-21T01:40:17.824Z,66.80
2023-05-21T01:45:24.053Z,66.80
2023-05-21T01:50:28.119Z,66.80
2023-05-21T01:55:34.111Z,66.80
2023-05-21T02:00:39.928Z,66.70
2023-05-21T02:05:43.334Z,66.60
2023-05-21T02:10:48.491Z,66.70
2023-05-21T02:15:54.634Z,66.60
2023-05-21T02:20:58.475Z,66.70
2023-05-21T02:26:03.512Z,66.80
2023-05-21T02:31:07.108Z,67.00
2023-05-21T02:36:13.177Z,66.80
2023-05-21T02:41:20.348Z,66.70
2023-05-21T02:46:24.225Z,66.80
2023-05-21T02:51:29.227Z,66.80
2023-05-21T02:56:34.147Z,67.30
2023-05-21T03:01:38.105Z,66.70
2023-05-21T03:06:42.288Z,66.50
2023-05-21T03:11:47.096Z,66.50
2023-05-21T03:16:51.434Z,66.60
2023-05-21T03:21:56.495Z,66.40
2023-05-21T03:27:02.076Z,66.60
2023-05-21T03:32:06.834Z,66.70
2023-05-21T03:37:11.045Z,66.80
2023-05-21T03:42:16.203Z,66.60
2023-05-21T03:47:25.243Z,66.60
2023-05-21T03:52:30.034Z,66.90
2023-05-21T03:57:34.995Z,66.90
2023-05-21T04:02:38.517Z,66.80
2023-05-21T04:07:42.996Z,66.80
2023-05-21T04:12:49.183Z,66.80
2023-05-21T04:17:53.149Z,66.70
2023-05-21T04:22:56.930Z,67.10
2023-05-21T04:28:02.149Z,67.00
2023-05-21T04:33:05.803Z,66.80
2023-05-21T04:38:12.582Z,67.00
2023-05-21T04:43:18.029Z,67.10
2023-05-21T04:48:22.914Z,67.20
2023-05-21T04:53:26.690Z,67.10
2023-05-21T04:58:32.920Z,67.20
2023-05-21T05:03:36.869Z,67.40
2023-05-21T05:08:40.718Z,67.00
2023-05-21T05:13:45.530Z,65.40
2023-05-21T05:18:49.103Z,63.60
2023-05-21T05:23:52.792Z,62.80
2023-05-21T05:29:01.773Z,62.20
2023-05-21T05:34:05.554Z,61.90
2023-05-21T05:39:09.067Z,61.60
2023-05-21T05:44:14.071Z,61.00
2023-05-21T05:49:17.579Z,60.70
2023-05-21T05:54:21.058Z,60.50
2023-05-21T05:59:26.212Z,60.50
2023-05-21T06:04:33.783Z,60.30
2023-05-21T06:09:38.788Z,60.20
2023-05-21T06:14:45.836Z,59.90
2023-05-21T06:19:49.483Z,59.90
2023-05-21T06:24:53.049Z,60.00
2023-05-21T06:29:58.665Z,59.80
2023-05-21T06:35:02.316Z,59.70
2023-05-21T06:40:08.602Z,59.70
2023-05-21T06:45:14.378Z,59.70
2023-05-21T06:50:21.207Z,59.60
2023-05-21T06:55:24.679Z,59.60
2023-05-21T07:00:52.209Z,59.60
2023-05-21T07:05:55.956Z,59.80
2023-05-21T07:10:59.437Z,59.70
2023-05-21T07:16:04.395Z,59.80
2023-05-21T07:21:08.660Z,59.70
2023-05-21T07:26:13.266Z,60.20
2023-05-21T07:31:18.248Z,60.00
2023-05-21T07:36:24.814Z,59.80
2023-05-21T07:41:28.435Z,59.90
2023-05-21T07:46:35.023Z,59.90
2023-05-21T07:51:38.499Z,59.90
2023-05-21T07:56:42.248Z,60.60
2023-05-21T08:01:54.650Z,61.50
2023-05-21T08:06:58.605Z,61.80
2023-05-21T08:12:02.083Z,61.50
2023-05-21T08:17:08.076Z,61.00
2023-05-21T08:22:11.674Z,61.00
2023-05-21T08:27:19.193Z,61.30
2023-05-21T08:32:24.041Z,60.90
2023-05-21T08:37:27.617Z,60.40
2023-05-21T08:42:45.542Z,61.10
2023-05-21T08:47:58.342Z,60.50
2023-05-21T08:53:12.704Z,60.60
2023-05-21T08:58:27.522Z,60.70
2023-05-21T09:03:33.170Z,61.50
2023-05-21T09:08:43.006Z,61.00
2023-05-21T09:14:01.582Z,61.20
2023-05-21T09:19:38.795Z,61.30
2023-05-21T09:24:44.302Z,61.60
2023-05-21T09:29:47.718Z,61.80
2023-05-21T09:34:56.322Z,61.70
2023-05-21T09:40:00.014Z,61.90
2023-05-21T09:45:04.688Z,61.80
2023-05-21T09:50:12.416Z,62.00
2023-05-21T09:55:17.337Z,61.90
2023-05-21T10:00:23.507Z,61.50
2023-05-21T10:05:30.398Z,61.50
2023-05-21T10:10:34.653Z,61.80
2023-05-21T10:15:44.257Z,61.60
2023-05-21T10:20:49.758Z,61.70
2023-05-21T10:25:55.622Z,62.00
2023-05-21T10:30:59.342Z,62.00
2023-05-21T10:36:04.812Z,62.00
2023-05-21T10:41:09.413Z,62.10
2023-05-21T10:46:47.377Z,62.10
2023-05-21T10:52:05.797Z,62.20
2023-05-21T10:57:31.071Z,62.20
2023-05-21T11:02:35.291Z,62.30
2023-05-21T11:07:58.658Z,62.30
2023-05-21T11:13:15.165Z,63.00
2023-05-21T11:18:18.692Z,63.70
2023-05-21T11:23:24.747Z,65.80
2023-05-21T11:28:35.348Z,67.50
2023-05-21T11:33:38.735Z,66.10
2023-05-21T11:38:43.496Z,66.30
2023-05-21T11:43:46.905Z,65.40
2023-05-21T11:48:52.291Z,65.50
2023-05-21T11:53:59.104Z,65.50
2023-05-21T11:59:04.133Z,65.60
2023-05-21T12:04:08.227Z,65.60
2023-05-21T12:09:13.872Z,64.70
2023-05-21T12:14:17.374Z,64.50
2023-05-21T12:19:21.034Z,64.40
2023-05-21T12:24:25.894Z,64.40
2023-05-21T12:29:31.996Z,64.50
2023-05-21T12:34:44.656Z,64.30
2023-05-21T12:39:51.448Z,64.20
2023-05-21T12:44:55.799Z,63.80
2023-05-21T12:50:00.283Z,63.80
2023-05-21T12:55:09.473Z,63.60
2023-05-21T13:00:14.374Z,63.70
2023-05-21T13:05:19.896Z,63.30
2023-05-21T13:10:25.129Z,63.00
2023-05-21T13:15:28.712Z,63.00
2023-05-21T13:20:32.251Z,63.00
2023-05-21T13:25:37.182Z,63.00
2023-05-21T13:30:41.054Z,62.90
2023-05-21T13:35:45.680Z,63.00
2023-05-21T13:40:50.611Z,62.90
2023-05-21T13:45:54.025Z,62.70
2023-05-21T13:50:57.426Z,63.00
2023-05-21T13:56:02.388Z,62.60
2023-05-21T14:01:06.497Z,62.60
2023-05-21T14:06:10.126Z,62.50
2023-05-21T14:11:14.874Z,62.50
2023-05-21T14:16:18.509Z,63.40
2023-05-21T14:21:22.452Z,62.60
2023-05-21T14:26:27.682Z,62.50
2023-05-21T14:31:31.399Z,62.60
2023-05-21T14:36:34.900Z,62.50
2023-05-21T14:41:41.300Z,62.40
2023-05-21T14:46:44.731Z,62.40
2023-05-21T14:51:48.518Z,62.10
2023-05-21T14:56:54.184Z,62.10
2023-05-21T15:01:57.837Z,62.50
2023-05-21T15:07:01.561Z,62.40
2023-05-21T15:12:07.017Z,61.90
2023-05-21T15:17:10.546Z,61.90
2023-05-21T15:22:13.935Z,61.60
2023-05-21T15:27:18.684Z,61.60
2023-05-21T15:32:22.175Z,61.70
2023-05-21T15:37:26.192Z,61.70
2023-05-21T15:42:31.409Z,61.70
2023-05-21T15:47:34.896Z,61.70
2023-05-21T15:52:38.337Z,61.80
2023-05-21T15:57:43.073Z,61.80
2023-05-21T16:02:46.664Z,61.40
2023-05-21T16:07:50.219Z,61.40
2023-05-21T16:12:54.947Z,61.40
2023-05-21T16:17:58.422Z,61.70
2023-05-21T16:23:02.450Z,61.60
2023-05-21T16:28:07.497Z,61.70
2023-05-21T16:33:11.549Z,61.70
2023-05-21T16:38:14.985Z,61.90
2023-05-21T16:43:19.786Z,61.60
2023-05-21T16:48:23.161Z,61.70
2023-05-21T16:53:26.599Z,61.70
2023-05-21T16:58:33.206Z,61.90
2023-05-21T17:03:36.753Z,61.80
2023-05-21T17:08:41.141Z,61.80
2023-05-21T17:13:47.992Z,61.80
2023-05-21T17:18:52.052Z,61.80
2023-05-21T17:23:55.594Z,61.70
2023-05-21T17:29:00.413Z,62.00
2023-05-21T17:34:03.865Z,61.90
2023-05-21T17:39:07.276Z,62.00
2023-05-21T17:44:13.680Z,62.90
2023-05-21T17:49:17.273Z,63.90
2023-05-21T17:54:21.283Z,64.00
2023-05-21T17:59:26.083Z,63.30
2023-05-21T18:04:29.758Z,63.50
2023-05-21T18:09:33.194Z,63.60
2023-05-21T18:14:38.078Z,63.90
2023-05-21T18:19:41.607Z,63.60
2023-05-21T18:24:45.015Z,63.40
2023-05-21T18:29:49.986Z,63.30
2023-05-21T18:34:53.430Z,63.60
2023-05-21T18:39:56.893Z,63.70
2023-05-21T18:45:08.654Z,63.80
2023-05-21T18:50:14.265Z,64.00
2023-05-21T18:55:17.715Z,64.30
2023-05-21T19:00:22.891Z,64.30
2023-05-21T19:05:26.532Z,64.60
2023-05-21T19:10:30.717Z,65.00
2023-05-21T19:15:35.638Z,65.10
2023-05-21T19:20:39.224Z,65.20
2023-05-21T19:25:42.870Z,65.40
2023-05-21T19:30:47.725Z,65.70
2023-05-21T19:35:52.171Z,65.60
2023-05-21T19:40:55.759Z,65.70
2023-05-21T19:46:00.552Z,65.80
2023-05-21T19:51:04.244Z,65.90
2023-05-21T19:56:08.695Z,65.70
2023-05-21T20:01:14.268Z,65.60
2023-05-21T20:06:19.075Z,65.50
2023-05-21T20:11:22.735Z,65.50
2023-05-21T20:16:27.531Z,65.50
2023-05-21T20:21:32.446Z,65.60
2023-05-21T20:26:36.502Z,65.50
2023-05-21T20:31:41.296Z,65.40
2023-05-21T20:36:44.857Z,65.50
2023-05-21T20:41:48.411Z,65.50
2023-05-21T20:46:53.420Z,65.50
2023-05-21T20:51:56.932Z,65.60
2023-05-21T20:57:00.366Z,65.40
2023-05-21T21:02:05.972Z,65.50
2023-05-21T21:07:10.088Z,65.40
2023-05-21T21:12:25.124Z,65.40
2023-05-21T21:17:32.441Z,66.40
2023-05-21T21:22:35.970Z,66.70
2023-05-21T21:27:39.889Z,66.70
2023-05-21T21:32:44.754Z,66.70
2023-05-21T21:37:48.423Z,67.40
2023-05-21T21:42:51.832Z,67.70
2023-05-21T21:47:56.898Z,67.80
2023-05-21T21:53:01.220Z,68.10
2023-05-21T21:58:07.982Z,68.20
2023-05-21T22:03:14.772Z,68.10
2023-05-21T22:08:18.500Z,68.20
2023-05-21T22:13:22.056Z,67.80
2023-05-21T22:18:39.755Z,68.00
2023-05-21T22:23:44.288Z,68.10
2023-05-21T22:28:47.699Z,67.90
2023-05-21T22:33:53.690Z,67.60
2023-05-21T22:38:57.171Z,67.60
2023-05-21T22:44:00.680Z,67.50
2023-05-21T22:49:06.348Z,67.80
2023-05-21T22:54:09.789Z,67.30
2023-05-21T22:59:13.303Z,67.40
2023-05-21T23:04:19.484Z,67.50
2023-05-21T23:09:23.989Z,67.50
2023-05-21T23:14:27.430Z,67.40
2023-05-21T23:19:34.790Z,67.80
2023-05-21T23:24:39.411Z,67.20
2023-05-21T23:29:42.800Z,68.70
2023-05-21T23:34:48.287Z,68.30
2023-05-21T23:39:52.144Z,68.60
2023-05-21T23:44:55.522Z,68.50
2023-05-21T23:50:00.312Z,68.40
2023-05-21T23:55:03.725Z,68.40
